Time;durP1;ratioP1;P1;durP2;ratioP2;P2;SDS_P1;SDS_P2;PMS_P1;PMS_P2;Temp;Humidity;BMP_temperature;BMP_pressure;BME280_temperature;BME280_humidity;BME280_pressure;Samples;Min_cycle;Max_cycle;Signal;HPM_P1;HPM_P2
2022/12/21 00:01:23;;;;;;;67.80;24.02;;;8.70;99.90;;;;;;7364071;19;20032;-46
2022/12/21 00:03:54;;;;;;;71.43;25.17;;;8.70;99.90;;;;;;7363289;19;20023;-46
2022/12/21 00:06:22;;;;;;;82.30;25.17;;;8.70;99.90;;;;;;7363823;19;20034;-45
2022/12/21 00:08:50;;;;;;;77.93;25.98;;;8.70;99.90;;;;;;7366091;19;20410;-44
2022/12/21 00:11:18;;;;;;;82.00;26.55;;;8.70;99.90;;;;;;7360185;19;20524;-48
2022/12/21 00:13:48;;;;;;;77.80;25.10;;;8.60;99.90;;;;;;7357402;19;20014;-50
2022/12/21 00:16:17;;;;;;;92.05;26.55;;;8.70;99.90;;;;;;7367997;19;20449;-47
2022/12/21 00:18:44;;;;;;;95.32;27.75;;;8.60;99.90;;;;;;7364590;19;20114;-48
2022/12/21 00:21:13;;;;;;;98.03;27.95;;;8.70;99.90;;;;;;7367134;19;20034;-47
2022/12/21 00:23:44;;;;;;;110.55;28.80;;;8.70;99.90;;;;;;7372687;19;20025;-46
2022/12/21 00:26:12;;;;;;;99.18;30.00;;;8.70;99.90;;;;;;7366383;19;20019;-47
2022/12/21 00:28:39;;;;;;;109.30;27.52;;;8.70;99.90;;;;;;7369398;19;20018;-45
2022/12/21 00:31:11;;;;;;;122.85;28.95;;;8.70;99.90;;;;;;7373290;19;20373;-44
2022/12/21 00:33:38;;;;;;;113.20;27.97;;;8.70;99.90;;;;;;7371732;19;20049;-45
2022/12/21 00:36:06;;;;;;;107.38;28.38;;;8.70;99.90;;;;;;7377946;19;20486;-46
2022/12/21 00:38:43;;;;;;;105.35;30.20;;;8.60;99.90;;;;;;7374084;19;20548;-45
2022/12/21 00:41:19;;;;;;;108.43;29.45;;;8.70;99.90;;;;;;7372633;19;20026;-46
2022/12/21 00:43:46;;;;;;;109.50;30.15;;;8.60;99.90;;;;;;7372987;19;20011;-47
2022/12/21 00:46:18;;;;;;;95.93;29.00;;;8.70;99.90;;;;;;7373595;19;20014;-47
2022/12/21 00:48:45;;;;;;;99.60;27.73;;;8.70;99.90;;;;;;7377816;19;20023;-49
2022/12/21 00:51:20;;;;;;;109.28;28.15;;;8.60;99.90;;;;;;7376842;19;20681;-46
2022/12/21 00:53:53;;;;;;;96.75;28.38;;;8.60;99.90;;;;;;7372052;19;20018;-48
2022/12/21 00:56:20;;;;;;;104.72;28.75;;;8.60;99.90;;;;;;7372885;19;20041;-46
2022/12/21 00:58:48;;;;;;;110.18;30.58;;;8.60;99.90;;;;;;7369196;19;20026;-47
2022/12/21 01:01:17;;;;;;;108.95;29.25;;;8.60;99.90;;;;;;7369550;19;20018;-48
2022/12/21 01:03:44;;;;;;;114.15;28.17;;;8.60;99.90;;;;;;7373271;19;20019;-46
2022/12/21 01:06:20;;;;;;;108.50;28.95;;;8.60;99.90;;;;;;7370306;19;20032;-45
2022/12/21 01:08:47;;;;;;;114.72;29.63;;;8.60;99.90;;;;;;7370726;19;20019;-47
2022/12/21 01:11:15;;;;;;;104.05;27.45;;;8.60;99.90;;;;;;7373830;19;20085;-45
2022/12/21 01:13:45;;;;;;;110.43;27.77;;;8.60;99.90;;;;;;7372547;19;20037;-46
2022/12/21 01:16:22;;;;;;;118.82;28.38;;;8.60;99.90;;;;;;7370293;19;20026;-45
2022/12/21 01:18:48;;;;;;;116.32;27.73;;;8.60;99.90;;;;;;7371523;19;20033;-46
2022/12/21 01:21:27;;;;;;;106.40;27.83;;;8.60;99.90;;;;;;7371173;19;20022;-46
2022/12/21 01:23:55;;;;;;;93.95;26.27;;;8.60;99.90;;;;;;7372906;19;20045;-48
2022/12/21 01:26:22;;;;;;;122.80;26.70;;;8.60;99.90;;;;;;7366199;19;20014;-47
2022/12/21 01:28:49;;;;;;;123.38;29.77;;;8.60;99.90;;;;;;7374548;19;20061;-49
2022/12/21 01:31:16;;;;;;;103.47;24.77;;;8.60;99.90;;;;;;7371834;19;20025;-49
2022/12/21 01:33:43;;;;;;;68.07;19.75;;;8.50;99.90;;;;;;7369230;19;20023;-46
2022/12/21 01:36:13;;;;;;;60.58;18.55;;;8.50;99.90;;;;;;7368822;19;20029;-48
2022/12/21 01:38:42;;;;;;;58.63;18.20;;;8.40;99.90;;;;;;7373843;19;20022;-46
2022/12/21 01:41:13;;;;;;;67.45;17.30;;;8.40;99.90;;;;;;7367125;19;20695;-48
2022/12/21 01:43:45;;;;;;;79.95;18.30;;;8.40;99.90;;;;;;7370722;19;20457;-47
2022/12/21 01:46:39;;;;;;;71.85;17.23;;;8.30;99.90;;;;;;7367328;19;20803;-50
2022/12/21 01:49:29;;;;;;;110.15;19.67;;;8.30;99.90;;;;;;7368870;19;20358;-48
2022/12/21 01:52:11;;;;;;;101.13;19.88;;;8.30;99.90;;;;;;7375273;19;20028;-46
2022/12/21 01:54:41;;;;;;;;;;;8.30;99.90;;;;;;7370263;19;20070;-47
2022/12/21 01:57:12;;;;;;;107.28;19.85;;;8.30;99.90;;;;;;7371560;19;19919;-51
2022/12/21 01:59:42;;;;;;;116.72;21.25;;;8.30;99.90;;;;;;7368524;19;20078;-50
2022/12/21 02:02:17;;;;;;;122.80;20.58;;;8.30;99.90;;;;;;7365793;19;20439;-48
2022/12/21 02:04:44;;;;;;;134.60;20.25;;;8.30;99.90;;;;;;7368051;19;20026;-46
2022/12/21 02:07:10;;;;;;;109.85;20.45;;;8.30;99.90;;;;;;7372740;19;20053;-48
2022/12/21 02:09:39;;;;;;;109.28;20.67;;;8.30;99.90;;;;;;7368193;19;20026;-47
2022/12/21 02:12:12;;;;;;;101.90;21.48;;;8.20;99.90;;;;;;7371610;19;20018;-45
2022/12/21 02:14:43;;;;;;;77.25;18.13;;;8.20;99.90;;;;;;7370691;19;20092;-45
2022/12/21 02:17:33;;;;;;;103.22;20.83;;;8.20;99.90;;;;;;7374921;19;20014;-46
2022/12/21 02:20:05;;;;;;;116.55;20.75;;;8.20;99.90;;;;;;7367851;19;20526;-45
2022/12/21 02:22:57;;;;;;;208.55;26.23;;;8.20;99.90;;;;;;7371057;19;20115;-46
2022/12/21 02:25:47;;;;;;;161.02;22.80;;;8.20;99.90;;;;;;7369436;19;20055;-49
2022/12/21 02:28:50;;;;;;;133.93;21.60;;;8.20;99.90;;;;;;7368280;19;20340;-44
2022/12/21 02:31:39;;;;;;;125.22;20.70;;;8.10;99.90;;;;;;7366704;19;20374;-49
2022/12/21 02:34:29;;;;;;;152.20;20.98;;;8.10;99.90;;;;;;7367642;19;20112;-46
2022/12/21 02:37:16;;;;;;;162.43;22.70;;;8.10;99.90;;;;;;7366270;19;20573;-49
2022/12/21 02:39:55;;;;;;;153.77;22.15;;;8.00;99.90;;;;;;7370911;19;20022;-46
2022/12/21 02:45:55;;;;;;;252.30;27.25;;;8.00;99.90;;;;;;7365563;19;20460;-46
2022/12/21 02:48:26;;;;;;;182.82;23.55;;;8.00;99.90;;;;;;7365836;19;20027;-46
2022/12/21 02:50:58;;;;;;;228.85;27.25;;;8.00;99.90;;;;;;7367568;19;20082;-46
2022/12/21 02:53:35;;;;;;;;;;;8.00;99.90;;;;;;7372778;19;20580;-44
2022/12/21 02:56:02;;;;;;;193.80;26.40;;;8.00;99.90;;;;;;7366172;19;19959;-47
2022/12/21 02:58:29;;;;;;;137.23;23.95;;;8.00;99.90;;;;;;7370520;19;20372;-45
2022/12/21 03:01:28;;;;;;;111.47;21.23;;;7.90;99.90;;;;;;7370277;19;20018;-46
2022/12/21 03:03:58;;;;;;;157.43;24.90;;;7.90;99.90;;;;;;7368722;19;20022;-45
2022/12/21 03:06:40;;;;;;;143.80;23.30;;;7.90;99.90;;;;;;7367730;19;20652;-46
2022/12/21 03:09:34;;;;;;;183.38;26.35;;;7.90;99.90;;;;;;7364879;19;20018;-48
2022/12/21 03:12:16;;;;;;;204.63;27.63;;;7.90;99.90;;;;;;7368445;19;20512;-44
2022/12/21 03:15:01;;;;;;;206.30;24.83;;;7.90;99.90;;;;;;7366045;19;20291;-43
2022/12/21 03:17:43;;;;;;;208.98;27.38;;;7.90;99.90;;;;;;7367105;19;20501;-45
2022/12/21 03:20:30;;;;;;;257.90;31.83;;;7.90;99.90;;;;;;7361366;19;20022;-47
2022/12/21 03:23:06;;;;;;;242.75;29.33;;;7.90;99.90;;;;;;7362498;19;20493;-46
2022/12/21 03:26:01;;;;;;;262.08;31.50;;;7.80;99.90;;;;;;7367726;19;20028;-47
2022/12/21 03:28:34;;;;;;;214.63;28.38;;;7.80;99.90;;;;;;7367918;19;20402;-49
2022/12/21 03:31:05;;;;;;;186.82;26.52;;;7.80;99.90;;;;;;7367459;19;20355;-49
2022/12/21 03:33:40;;;;;;;145.32;25.23;;;7.80;99.90;;;;;;7371915;19;20018;-48
2022/12/21 03:36:14;;;;;;;227.95;29.33;;;7.80;99.90;;;;;;7366937;19;20578;-46
2022/12/21 03:38:53;;;;;;;213.68;30.17;;;7.80;99.90;;;;;;7369978;19;20018;-49
2022/12/21 03:41:31;;;;;;;260.35;30.63;;;7.70;99.90;;;;;;7368413;19;20046;-45
2022/12/21 03:44:02;;;;;;;249.95;31.77;;;7.80;99.90;;;;;;7369512;19;20089;-47
2022/12/21 03:46:40;;;;;;;282.83;32.83;;;7.80;99.90;;;;;;7370061;19;20086;-46
2022/12/21 03:49:34;;;;;;;283.10;33.17;;;7.70;99.90;;;;;;7369328;19;20414;-47
2022/12/21 03:52:35;;;;;;;345.77;34.92;;;7.80;99.90;;;;;;7367731;19;20017;-47
2022/12/21 03:55:14;;;;;;;229.68;30.40;;;7.80;99.90;;;;;;7367434;19;20019;-46
2022/12/21 03:57:41;;;;;;;281.40;33.13;;;7.80;99.90;;;;;;7375013;19;20022;-47
2022/12/21 04:00:11;;;;;;;247.57;31.25;;;7.80;99.90;;;;;;7376691;19;20588;-45
2022/12/21 04:03:06;;;;;;;251.95;33.72;;;7.80;99.90;;;;;;7377318;19;20030;-48
2022/12/21 04:05:41;;;;;;;282.27;35.95;;;7.80;99.90;;;;;;7374853;19;20018;-45
2022/12/21 04:08:09;;;;;;;281.13;37.83;;;7.80;99.90;;;;;;7377054;19;20038;-44
2022/12/21 04:10:36;;;;;;;254.13;37.35;;;7.80;99.90;;;;;;7374417;19;20351;-44
2022/12/21 04:13:02;;;;;;;320.50;36.97;;;7.80;99.90;;;;;;7377263;19;20498;-44
2022/12/21 04:19:57;;;;;;;353.10;40.75;;;7.80;99.90;;;;;;7376338;19;20026;-45
2022/12/21 04:21:02;;;;;;;221.25;34.30;;;7.80;99.90;;;;;;7377389;19;20022;-49
2022/12/21 04:29:02;;;;;;;258.17;35.42;;;7.80;99.90;;;;;;7371691;19;20094;-45
2022/12/21 04:31:29;;;;;;;288.27;41.45;;;7.80;99.90;;;;;;7376341;19;20029;-49
2022/12/21 04:33:55;;;;;;;213.95;36.03;;;7.80;99.90;;;;;;7374103;19;20014;-49
2022/12/21 04:39:06;;;;;;;293.38;40.55;;;7.80;99.90;;;;;;7376765;19;20389;-45
2022/12/21 04:41:33;;;;;;;260.90;39.20;;;7.80;99.90;;;;;;7370852;19;20568;-46
2022/12/21 04:44:00;;;;;;;263.73;37.25;;;7.80;99.90;;;;;;7373912;19;20018;-49
2022/12/21 04:46:26;;;;;;;238.48;35.78;;;7.70;99.90;;;;;;7372173;19;20025;-45
2022/12/21 04:48:52;;;;;;;230.00;35.45;;;7.70;99.90;;;;;;7375391;19;20025;-49
2022/12/21 04:51:21;;;;;;;333.25;45.03;;;7.70;99.90;;;;;;7376267;19;20070;-49
2022/12/21 04:53:48;;;;;;;367.55;45.47;;;7.70;99.90;;;;;;7373091;19;20030;-46
2022/12/21 04:56:16;;;;;;;266.92;40.50;;;7.70;99.90;;;;;;7375981;19;20027;-43
2022/12/21 04:58:42;;;;;;;354.00;44.30;;;7.70;99.90;;;;;;7375453;19;20019;-45
2022/12/21 05:01:14;;;;;;;483.27;55.28;;;7.70;99.90;;;;;;7372561;19;20026;-44
2022/12/21 05:03:41;;;;;;;384.70;48.53;;;7.80;99.90;;;;;;7374260;19;20018;-46
2022/12/21 05:06:09;;;;;;;349.75;44.28;;;7.80;99.90;;;;;;7371836;19;20418;-44
2022/12/21 05:08:37;;;;;;;366.83;43.58;;;7.80;99.90;;;;;;7373870;19;20592;-45
2022/12/21 05:11:15;;;;;;;301.52;41.03;;;7.80;99.90;;;;;;7373424;19;20656;-48
2022/12/21 05:13:42;;;;;;;286.35;41.30;;;7.80;99.90;;;;;;7378386;19;20014;-44
2022/12/21 05:16:12;;;;;;;220.75;37.55;;;7.70;99.90;;;;;;7376568;19;20098;-49
2022/12/21 05:18:44;;;;;;;331.63;43.28;;;7.80;99.90;;;;;;7374661;19;20517;-50
2022/12/21 05:21:12;;;;;;;313.65;40.97;;;7.80;99.90;;;;;;7372890;19;20029;-47
2022/12/21 05:23:43;;;;;;;313.80;40.97;;;7.80;99.90;;;;;;7373572;19;20047;-51
2022/12/21 05:26:10;;;;;;;350.15;42.92;;;7.80;99.90;;;;;;7369903;19;20524;-48
2022/12/21 05:28:37;;;;;;;392.65;48.55;;;7.80;99.90;;;;;;7373098;19;20021;-47
2022/12/21 05:31:06;;;;;;;338.45;45.13;;;7.80;99.90;;;;;;7374282;19;20084;-46
2022/12/21 05:33:32;;;;;;;390.63;46.17;;;7.80;99.90;;;;;;7377016;19;20394;-50
2022/12/21 05:36:07;;;;;;;330.27;43.75;;;7.80;99.90;;;;;;7373609;19;20022;-46
2022/12/21 05:38:34;;;;;;;249.25;41.28;;;7.80;99.90;;;;;;7374950;19;20019;-48
2022/12/21 05:41:01;;;;;;;283.85;44.97;;;7.90;99.90;;;;;;7372777;19;20378;-50
2022/12/21 05:43:27;;;;;;;338.42;47.53;;;7.90;99.90;;;;;;7376825;19;20020;-48
2022/12/21 05:45:54;;;;;;;351.98;50.15;;;7.80;99.90;;;;;;7370465;19;20033;-48
2022/12/21 05:48:20;;;;;;;322.83;46.35;;;7.80;99.90;;;;;;7369528;19;20088;-49
2022/12/21 05:50:47;;;;;;;371.08;47.90;;;7.90;99.90;;;;;;7370077;19;20026;-46
2022/12/21 05:53:13;;;;;;;299.52;43.38;;;7.90;99.90;;;;;;7373588;19;20014;-50
2022/12/21 05:55:43;;;;;;;287.95;46.28;;;7.90;99.90;;;;;;7371951;19;20408;-49
2022/12/21 05:58:13;;;;;;;220.43;42.65;;;7.90;99.90;;;;;;7370590;19;20086;-47
2022/12/21 06:00:40;;;;;;;257.90;46.47;;;7.90;99.90;;;;;;7367399;19;20478;-47
2022/12/21 06:03:07;;;;;;;251.60;42.92;;;7.90;99.90;;;;;;7366911;19;20025;-48
2022/12/21 06:05:37;;;;;;;222.02;43.13;;;7.90;99.90;;;;;;7370925;19;20520;-46
2022/12/21 06:08:04;;;;;;;210.63;40.83;;;7.90;99.90;;;;;;7369464;19;20029;-49
2022/12/21 06:10:30;;;;;;;271.80;45.83;;;7.90;99.90;;;;;;7369033;19;20109;-50
2022/12/21 06:12:56;;;;;;;258.08;44.70;;;7.90;99.90;;;;;;7367856;19;20018;-49
2022/12/21 06:15:26;;;;;;;225.85;39.55;;;7.90;99.90;;;;;;7364976;19;20022;-47
2022/12/21 06:17:53;;;;;;;221.85;40.20;;;7.90;99.90;;;;;;7364969;19;20014;-44
2022/12/21 06:20:20;;;;;;;166.88;36.50;;;7.90;99.90;;;;;;7363150;19;20019;-49
2022/12/21 06:22:47;;;;;;;196.60;36.72;;;7.90;99.90;;;;;;7367618;19;20478;-46
2022/12/21 06:25:13;;;;;;;165.27;33.25;;;7.90;99.90;;;;;;7367450;19;20507;-47
2022/12/21 06:27:40;;;;;;;191.60;34.47;;;7.90;99.90;;;;;;7368489;19;20015;-49
2022/12/21 06:30:07;;;;;;;143.75;32.75;;;7.90;99.90;;;;;;7374094;19;20510;-49
2022/12/21 06:32:33;;;;;;;183.23;34.63;;;7.80;99.90;;;;;;7371573;19;20018;-45
2022/12/21 06:34:59;;;;;;;169.88;32.22;;;7.90;99.90;;;;;;7375072;19;20025;-45
2022/12/21 06:37:29;;;;;;;160.18;30.95;;;7.80;99.90;;;;;;7373142;19;20090;-46
2022/12/21 06:39:55;;;;;;;156.15;32.22;;;7.80;99.90;;;;;;7370555;19;20569;-46
2022/12/21 06:42:21;;;;;;;183.10;33.90;;;7.90;99.90;;;;;;7365851;19;20465;-48
2022/12/21 06:44:48;;;;;;;154.68;31.48;;;7.80;99.90;;;;;;7370346;19;20029;-49
2022/12/21 06:47:14;;;;;;;254.48;37.58;;;7.80;99.90;;;;;;7367131;19;20668;-48
2022/12/21 06:49:41;;;;;;;201.98;35.97;;;7.80;99.90;;;;;;7370569;19;20466;-45
2022/12/21 06:52:08;;;;;;;209.60;35.38;;;7.80;99.90;;;;;;7371886;19;20366;-46
2022/12/21 06:54:34;;;;;;;228.85;36.22;;;7.80;99.90;;;;;;7369444;19;20640;-49
2022/12/21 06:57:00;;;;;;;250.75;37.65;;;7.80;99.90;;;;;;7369763;19;20010;-45
2022/12/21 06:59:26;;;;;;;203.30;35.97;;;7.80;99.90;;;;;;7371342;19;20018;-50
2022/12/21 07:01:53;;;;;;;202.48;34.45;;;7.80;99.90;;;;;;7370901;19;20022;-45
2022/12/21 07:04:29;;;;;;;237.45;39.17;;;7.80;99.90;;;;;;7369324;19;20022;-46
2022/12/21 07:06:55;;;;;;;206.73;37.67;;;7.80;99.90;;;;;;7373128;19;20026;-46
2022/12/21 07:09:22;;;;;;;215.75;36.28;;;7.80;99.90;;;;;;7365024;19;20364;-50
2022/12/21 07:11:51;;;;;;;212.68;36.85;;;7.80;99.90;;;;;;7371608;19;20022;-49
2022/12/21 07:14:18;;;;;;;193.10;35.83;;;7.80;99.90;;;;;;7370925;19;20025;-47
2022/12/21 07:16:44;;;;;;;237.52;38.50;;;7.80;99.90;;;;;;7373966;19;20014;-50
2022/12/21 07:19:11;;;;;;;189.25;36.88;;;7.80;99.90;;;;;;7367413;19;20014;-46
2022/12/21 07:21:38;;;;;;;163.93;35.22;;;7.80;99.90;;;;;;7374447;19;20030;-46
2022/12/21 07:24:05;;;;;;;203.38;36.67;;;7.80;99.90;;;;;;7372452;19;20039;-50
2022/12/21 07:26:31;;;;;;;200.95;39.53;;;7.80;99.90;;;;;;7370093;19;20014;-48
2022/12/21 07:28:57;;;;;;;188.35;36.83;;;7.80;99.90;;;;;;7370005;19;20024;-46
2022/12/21 07:31:25;;;;;;;159.93;34.63;;;7.80;99.90;;;;;;7370804;19;20037;-48
2022/12/21 07:33:52;;;;;;;206.48;38.58;;;7.80;99.90;;;;;;7378559;19;20550;-48
2022/12/21 07:36:19;;;;;;;313.00;46.38;;;7.70;99.90;;;;;;7377821;19;20029;-50
2022/12/21 07:38:46;;;;;;;189.52;39.10;;;7.70;99.90;;;;;;7377201;19;20386;-45
2022/12/21 07:41:18;;;;;;;201.85;41.70;;;7.70;99.90;;;;;;7373267;19;20018;-45
2022/12/21 07:43:45;;;;;;;190.63;40.00;;;7.80;99.90;;;;;;7377974;19;20378;-49
2022/12/21 07:46:32;;;;;;;253.35;42.08;;;7.80;99.90;;;;;;7378211;19;20021;-50
2022/12/21 07:49:00;;;;;;;204.43;39.90;;;7.80;99.90;;;;;;7378326;19;20029;-47
2022/12/21 07:51:26;;;;;;;209.77;39.47;;;7.80;99.90;;;;;;7378192;19;20115;-50
2022/12/21 07:53:52;;;;;;;260.85;44.03;;;7.80;99.90;;;;;;7380922;19;20428;-49
2022/12/21 07:56:19;;;;;;;239.38;43.92;;;7.70;99.90;;;;;;7377016;19;20018;-49
2022/12/21 07:58:46;;;;;;;233.60;42.55;;;7.80;99.90;;;;;;7380416;19;20022;-46
2022/12/21 08:01:17;;;;;;;238.82;42.45;;;7.80;99.90;;;;;;7379760;19;20072;-48
2022/12/21 08:03:45;;;;;;;198.43;39.17;;;7.80;99.90;;;;;;7378001;19;20018;-46
2022/12/21 08:06:11;;;;;;;199.63;40.40;;;7.80;99.90;;;;;;7376796;19;20497;-47
2022/12/21 08:08:38;;;;;;;189.48;42.20;;;7.80;99.90;;;;;;7377842;19;20429;-46
2022/12/21 08:11:17;;;;;;;199.45;41.95;;;7.80;99.90;;;;;;7375149;19;20017;-47
2022/12/21 08:13:44;;;;;;;193.77;44.00;;;7.80;99.90;;;;;;7377406;19;20018;-46
2022/12/21 08:16:13;;;;;;;184.50;42.22;;;7.80;99.90;;;;;;7375000;19;20412;-44
2022/12/21 08:18:40;;;;;;;159.27;38.63;;;7.80;99.90;;;;;;7373064;19;20413;-49
2022/12/21 08:21:08;;;;;;;163.80;39.45;;;7.90;99.90;;;;;;7378395;19;20023;-49
2022/12/21 08:23:37;;;;;;;177.65;40.15;;;7.80;99.90;;;;;;7379525;19;20037;-46
2022/12/21 08:26:06;;;;;;;162.23;40.63;;;7.80;99.90;;;;;;7376760;19;20018;-50
2022/12/21 08:28:38;;;;;;;162.32;41.08;;;7.90;99.90;;;;;;7374445;19;20101;-50
2022/12/21 08:31:13;;;;;;;154.57;38.28;;;7.80;99.90;;;;;;7375296;19;20022;-50
2022/12/21 08:33:42;;;;;;;147.75;41.03;;;7.80;99.90;;;;;;7373857;19;20705;-47
2022/12/21 08:36:16;;;;;;;167.73;42.45;;;7.90;99.90;;;;;;7376382;19;20018;-45
2022/12/21 08:38:42;;;;;;;154.00;42.28;;;7.90;99.90;;;;;;7373799;19;20029;-46
2022/12/21 08:41:09;;;;;;;137.88;39.95;;;7.80;99.90;;;;;;7373397;19;20026;-48
2022/12/21 08:43:37;;;;;;;146.05;38.58;;;7.80;99.90;;;;;;7374637;19;20015;-46
2022/12/21 08:46:09;;;;;;;161.35;39.97;;;7.80;99.90;;;;;;7372024;19;20022;-47
2022/12/21 08:48:36;;;;;;;162.35;40.28;;;7.80;99.90;;;;;;7378472;19;20059;-51
2022/12/21 08:51:04;;;;;;;181.25;41.58;;;7.90;99.90;;;;;;7377135;19;20537;-45
2022/12/21 08:53:30;;;;;;;159.20;39.95;;;7.80;99.90;;;;;;7373860;19;20018;-47
2022/12/21 08:55:57;;;;;;;167.60;39.92;;;7.80;99.90;;;;;;7379298;19;20026;-45
2022/12/21 08:58:27;;;;;;;151.02;38.05;;;7.90;99.90;;;;;;7372700;19;20014;-49
2022/12/21 09:00:55;;;;;;;143.52;35.55;;;7.80;99.90;;;;;;7372745;19;20374;-46
2022/12/21 09:03:23;;;;;;;121.80;35.33;;;7.90;99.90;;;;;;7375878;19;20490;-48
2022/12/21 09:05:54;;;;;;;137.48;37.65;;;7.90;99.90;;;;;;7381209;19;20026;-47
2022/12/21 09:08:21;;;;;;;173.55;40.38;;;7.90;99.90;;;;;;7371966;19;20030;-46
2022/12/21 09:10:47;;;;;;;153.27;40.90;;;7.90;99.90;;;;;;7376412;19;20018;-46
2022/12/21 09:13:13;;;;;;;146.48;38.13;;;7.90;99.90;;;;;;7375507;19;20121;-48
2022/12/21 09:15:41;;;;;;;128.23;33.72;;;7.90;99.90;;;;;;7375243;19;20505;-47
2022/12/21 09:18:09;;;;;;;122.90;33.75;;;7.90;99.90;;;;;;7371747;19;20014;-49
2022/12/21 09:20:36;;;;;;;122.03;34.13;;;7.90;99.90;;;;;;7370350;19;20694;-45
2022/12/21 09:23:03;;;;;;;141.30;35.53;;;7.90;99.90;;;;;;7372544;19;20018;-47
2022/12/21 09:25:30;;;;;;;103.63;32.10;;;7.90;99.90;;;;;;7371537;19;20011;-46
2022/12/21 09:28:01;;;;;;;128.40;34.20;;;7.80;99.90;;;;;;7372765;19;20071;-47
2022/12/21 09:30:29;;;;;;;107.13;33.03;;;7.90;99.90;;;;;;7369521;19;20021;-47
2022/12/21 09:32:56;;;;;;;127.30;33.22;;;7.90;99.90;;;;;;7375266;19;20022;-49
2022/12/21 09:35:30;;;;;;;116.07;34.08;;;7.90;99.90;;;;;;7370498;19;20033;-47
2022/12/21 09:37:57;;;;;;;112.15;34.83;;;7.90;99.90;;;;;;7373552;19;20028;-51
2022/12/21 09:40:24;;;;;;;113.10;35.97;;;7.90;99.90;;;;;;7370547;19;20021;-50
2022/12/21 09:43:05;;;;;;;106.03;34.78;;;7.90;99.90;;;;;;7374655;19;20030;-49
2022/12/21 09:45:58;;;;;;;94.30;32.85;;;7.90;99.90;;;;;;7376110;19;20385;-47
2022/12/21 09:48:30;;;;;;;77.97;28.27;;;8.00;99.90;;;;;;7371917;19;20472;-50
2022/12/21 09:51:18;;;;;;;92.78;33.42;;;8.00;99.90;;;;;;7375184;19;20018;-51
2022/12/21 09:54:17;;;;;;;86.15;30.83;;;8.00;99.90;;;;;;7370774;19;20470;-46
2022/12/21 09:56:50;;;;;;;82.93;31.80;;;8.00;99.90;;;;;;7377899;19;20014;-46
2022/12/21 09:59:20;;;;;;;93.78;33.15;;;8.00;99.90;;;;;;7368986;19;20015;-51
2022/12/21 10:02:06;;;;;;;80.25;30.35;;;7.90;99.90;;;;;;7375444;19;20370;-47
2022/12/21 10:04:44;;;;;;;75.30;30.08;;;8.00;99.90;;;;;;7375316;19;20636;-48
2022/12/21 10:07:34;;;;;;;70.60;28.92;;;8.10;99.90;;;;;;7372762;19;20022;-49
2022/12/21 10:10:07;;;;;;;78.15;30.35;;;8.10;99.90;;;;;;7370317;19;20430;-51
2022/12/21 10:13:11;;;;;;;72.53;27.58;;;8.20;99.90;;;;;;7376681;19;20089;-51
2022/12/21 10:15:46;;;;;;;65.18;28.77;;;8.10;99.90;;;;;;7371740;19;20416;-50
2022/12/21 10:18:15;;;;;;;71.38;29.80;;;8.20;99.90;;;;;;7374252;19;20010;-47
2022/12/21 10:20:56;;;;;;;69.97;27.52;;;8.20;99.90;;;;;;7374850;19;20131;-48
2022/12/21 10:23:27;;;;;;;70.55;27.50;;;8.20;99.90;;;;;;7366875;19;20529;-47
2022/12/21 10:26:03;;;;;;;72.82;29.48;;;8.30;99.90;;;;;;7369850;19;20363;-45
2022/12/21 10:28:49;;;;;;;64.90;27.98;;;8.30;99.90;;;;;;7372044;19;20018;-46
2022/12/21 10:31:27;;;;;;;72.85;27.05;;;8.40;99.90;;;;;;7370852;19;20023;-48
2022/12/21 10:33:56;;;;;;;65.90;27.15;;;8.50;99.90;;;;;;7370505;19;20014;-50
2022/12/21 10:36:33;;;;;;;59.35;25.80;;;8.50;99.90;;;;;;7368419;19;20417;-47
2022/12/21 10:39:00;;;;;;;61.88;25.65;;;8.60;99.90;;;;;;7369181;19;20035;-46
2022/12/21 10:41:32;;;;;;;64.68;27.15;;;8.60;99.90;;;;;;7368462;19;20413;-44
2022/12/21 10:44:00;;;;;;;59.40;27.75;;;8.70;99.90;;;;;;7366661;19;20022;-51
2022/12/21 10:46:35;;;;;;;54.58;25.25;;;8.90;99.90;;;;;;7368686;19;20102;-46
2022/12/21 10:49:12;;;;;;;60.97;26.85;;;9.00;99.90;;;;;;7369608;19;20053;-46
2022/12/21 10:51:39;;;;;;;52.03;24.55;;;9.20;99.90;;;;;;7370173;19;20031;-45
2022/12/21 10:54:09;;;;;;;48.65;24.27;;;9.60;99.90;;;;;;7371005;19;20023;-46
2022/12/21 10:56:44;;;;;;;44.97;22.40;;;10.10;99.90;;;;;;7372141;19;20030;-47
2022/12/21 10:59:29;;;;;;;47.58;21.27;;;10.30;99.90;;;;;;7371981;19;20011;-48
2022/12/21 11:01:56;;;;;;;41.53;20.58;;;10.10;99.90;;;;;;7367645;19;20020;-50
2022/12/21 11:04:31;;;;;;;50.28;21.60;;;10.40;99.90;;;;;;7365397;19;20018;-47
2022/12/21 11:07:03;;;;;;;34.97;20.23;;;10.80;99.90;;;;;;7367029;19;20066;-46
2022/12/21 11:09:33;;;;;;;39.08;21.65;;;10.80;99.90;;;;;;7368781;19;20114;-46
2022/12/21 11:12:21;;;;;;;40.00;20.65;;;10.50;99.90;;;;;;7370050;19;20572;-49
2022/12/21 11:14:49;;;;;;;38.00;19.60;;;10.50;99.90;;;;;;7367961;19;20010;-46
2022/12/21 11:17:27;;;;;;;37.63;20.88;;;10.50;99.90;;;;;;7373039;19;20476;-45
2022/12/21 11:20:13;;;;;;;38.65;20.42;;;10.40;99.90;;;;;;7373308;19;20050;-47
2022/12/21 11:22:43;;;;;;;39.35;21.88;;;10.40;99.90;;;;;;7372611;19;20466;-46
2022/12/21 11:25:24;;;;;;;44.17;20.63;;;10.60;99.90;;;;;;7368707;19;20020;-49
2022/12/21 11:27:59;;;;;;;39.03;22.13;;;10.60;99.90;;;;;;7373667;19;20549;-49
2022/12/21 11:30:27;;;;;;;45.10;23.45;;;10.60;99.90;;;;;;7366495;19;20276;-46
2022/12/21 11:32:56;;;;;;;41.75;23.33;;;10.40;99.90;;;;;;7372547;19;20034;-49
2022/12/21 11:35:27;;;;;;;40.38;23.48;;;10.30;99.90;;;;;;7370680;19;20033;-50
2022/12/21 11:38:15;;;;;;;39.30;23.35;;;10.40;99.90;;;;;;7370875;19;20471;-51
2022/12/21 11:41:00;;;;;;;39.55;23.05;;;10.40;99.90;;;;;;7370235;19;20035;-48
2022/12/21 11:43:26;;;;;;;42.90;23.17;;;10.30;99.90;;;;;;7370168;19;20466;-48
2022/12/21 11:46:12;;;;;;;44.53;27.38;;;10.20;99.90;;;;;;7367870;19;20124;-47
2022/12/21 11:49:10;;;;;;;53.38;30.60;;;10.30;99.90;;;;;;7366366;19;20082;-49
2022/12/21 11:51:48;;;;;;;52.67;28.83;;;10.40;99.90;;;;;;7367010;19;20018;-48
2022/12/21 11:54:31;;;;;;;58.28;30.20;;;10.50;99.90;;;;;;7367982;19;20019;-46
2022/12/21 11:57:07;;;;;;;50.28;30.20;;;10.40;99.90;;;;;;7371438;19;20022;-47
2022/12/21 11:59:42;;;;;;;46.35;29.13;;;10.50;99.90;;;;;;7368598;19;20032;-45
2022/12/21 12:02:30;;;;;;;57.05;31.33;;;10.50;99.90;;;;;;7367155;19;20032;-48
2022/12/21 12:05:32;;;;;;;49.00;27.48;;;10.50;99.90;;;;;;7372767;19;20461;-46
2022/12/21 12:08:07;;;;;;;50.45;31.30;;;10.50;99.90;;;;;;7367307;19;20032;-49
2022/12/21 12:10:44;;;;;;;49.80;28.98;;;10.50;99.90;;;;;;7371872;19;20129;-48
2022/12/21 12:17:04;;;;;;;52.03;28.38;;;10.90;99.90;;;;;;7370583;19;20469;-46
2022/12/21 12:20:02;;;;;;;49.30;26.67;;;11.00;99.90;;;;;;7376710;19;20644;-46
2022/12/21 12:23:02;;;;;;;47.83;27.23;;;11.10;99.90;;;;;;7372532;19;20018;-46
2022/12/21 12:25:45;;;;;;;46.15;27.15;;;11.30;99.90;;;;;;7372254;19;20014;-46
2022/12/21 12:28:37;;;;;;;49.75;27.75;;;11.20;99.90;;;;;;7371317;19;20133;-47
2022/12/21 12:31:18;;;;;;;53.47;28.52;;;11.10;99.90;;;;;;7374104;19;20026;-50
2022/12/21 12:33:48;;;;;;;44.53;27.13;;;10.80;99.90;;;;;;7377928;19;20038;-49
2022/12/21 12:36:27;;;;;;;54.20;30.95;;;10.70;99.90;;;;;;7378006;19;20453;-50
2022/12/21 12:38:54;;;;;;;46.15;28.58;;;10.50;99.90;;;;;;7369200;19;20022;-48
2022/12/21 12:41:49;;;;;;;49.90;31.52;;;10.40;99.90;;;;;;7379008;19;20121;-48
2022/12/21 12:45:01;;;;;;;52.25;30.95;;;10.40;99.90;;;;;;7377558;19;20018;-45
2022/12/21 12:48:13;;;;;;;51.08;31.42;;;10.20;99.90;;;;;;7367979;19;20401;-46
2022/12/21 12:51:06;;;;;;;54.15;31.38;;;10.20;99.90;;;;;;7373443;19;20025;-47
2022/12/21 12:53:42;;;;;;;51.90;31.05;;;10.00;99.90;;;;;;7375540;19;20015;-46
2022/12/21 12:56:41;;;;;;;53.88;31.45;;;9.90;99.90;;;;;;7371835;19;20481;-44
2022/12/21 12:59:26;;;;;;;52.72;32.08;;;9.70;99.90;;;;;;7376383;19;20019;-50
2022/12/21 13:02:11;;;;;;;48.45;30.23;;;9.70;99.90;;;;;;7373953;19;20383;-45
2022/12/21 13:05:28;;;;;;;52.53;32.30;;;9.70;99.90;;;;;;7374846;19;20505;-50
2022/12/21 13:08:25;;;;;;;54.92;34.33;;;9.80;99.90;;;;;;7372976;19;20049;-48
2022/12/21 13:10:58;;;;;;;56.13;33.22;;;9.80;99.90;;;;;;7369050;19;20585;-49
2022/12/21 13:13:52;;;;;;;49.65;32.42;;;9.90;99.90;;;;;;7371778;19;20025;-45
2022/12/21 13:16:32;;;;;;;45.00;30.90;;;10.00;99.90;;;;;;7373502;19;20018;-45
2022/12/21 13:19:06;;;;;;;45.25;31.15;;;10.20;99.90;;;;;;7374876;19;20376;-47